Time;durP1;ratioP1;P1;durP2;ratioP2;P2;SDS_P1;SDS_P2;PMS_P1;PMS_P2;Temp;Humidity;BMP_temperature;BMP_pressure;BME280_temperature;BME280_humidity;BME280_pressure;Samples;Min_cycle;Max_cycle;Signal;HPM_P1;HPM_P2
2021/08/26 00:06:57;;;;;;;3.58;0.30;;;;;;;;;;5014247;28;20029;-80
2021/08/26 00:09:22;;;;;;;1.45;0.60;;;;;;;;;;4978917;28;20120;-80
2021/08/26 00:11:48;;;;;;;1.33;0.50;;;;;;;;;;4991189;28;20052;-81
2021/08/26 00:14:15;;;;;;;1.30;0.50;;;;;;;;;;4959211;28;20034;-81
2021/08/26 00:16:41;;;;;;;2.53;0.60;;;;;;;;;;4959026;28;20026;-80
2021/08/26 00:19:11;;;;;;;1.38;0.70;;;;;;;;;;4975383;28;20030;-80
2021/08/26 00:21:37;;;;;;;1.17;0.43;;;;;;;;;;4999592;28;20090;-81
2021/08/26 00:24:03;;;;;;;1.50;0.50;;;;;;;;;;5010777;28;20041;-80
2021/08/26 00:26:31;;;;;;;1.23;0.70;;;;;;;;;;5007037;28;20030;-81
2021/08/26 00:29:00;;;;;;;1.70;0.65;;;;;;;;;;4975279;28;20096;-81
2021/08/26 00:31:26;;;;;;;1.92;0.60;;;;;;;;;;4980809;28;20129;-81
2021/08/26 00:33:51;;;;;;;1.00;0.40;;;;;;;;;;4989218;28;20512;-81
2021/08/26 00:36:17;;;;;;;0.80;0.40;;;;;;;;;;5010408;28;20026;-80
2021/08/26 00:38:44;;;;;;;1.20;0.52;;;;;;;;;;5010681;28;20034;-80
2021/08/26 00:41:10;;;;;;;2.72;0.60;;;;;;;;;;5010406;28;20060;-80
2021/08/26 00:43:35;;;;;;;1.48;0.82;;;;;;;;;;5005687;28;20034;-80
2021/08/26 00:46:01;;;;;;;0.88;0.40;;;;;;;;;;4945591;28;20065;-81
2021/08/26 00:48:26;;;;;;;1.42;0.80;;;;;;;;;;4994201;28;20053;-81
2021/08/26 00:50:53;;;;;;;1.60;0.68;;;;;;;;;;4994130;28;20511;-81
2021/08/26 00:53:20;;;;;;;2.05;0.80;;;;;;;;;;4994726;28;20037;-81
2021/08/26 00:55:45;;;;;;;2.17;1.02;;;;;;;;;;5013701;28;20088;-80
2021/08/26 00:58:11;;;;;;;2.22;1.00;;;;;;;;;;5014056;28;20128;-80
2021/08/26 01:00:39;;;;;;;3.75;1.55;;;;;;;;;;5027304;28;20046;-80
2021/08/26 01:03:08;;;;;;;1.70;0.80;;;;;;;;;;5013676;28;20030;-81
2021/08/26 01:05:47;;;;;;;2.55;1.20;;;;;;;;;;5011074;28;20034;-81
2021/08/26 01:08:18;;;;;;;1.92;1.02;;;;;;;;;;4978300;28;20081;-81
2021/08/26 01:10:44;;;;;;;1.92;0.90;;;;;;;;;;4991890;28;20564;-81
2021/08/26 01:13:09;;;;;;;2.83;1.30;;;;;;;;;;5013918;28;20550;-80
2021/08/26 01:15:35;;;;;;;2.47;1.48;;;;;;;;;;5030661;28;20053;-81
2021/08/26 01:18:00;;;;;;;3.17;1.55;;;;;;;;;;5010741;28;20120;-80
2021/08/26 01:20:26;;;;;;;3.13;1.25;;;;;;;;;;5011588;28;20149;-80
2021/08/26 01:22:54;;;;;;;2.90;1.67;;;;;;;;;;5010220;28;20096;-81
2021/08/26 01:25:21;;;;;;;2.40;1.52;;;;;;;;;;4978834;28;20118;-81
2021/08/26 01:27:51;;;;;;;2.17;1.42;;;;;;;;;;4994870;28;20116;-81
2021/08/26 01:30:21;;;;;;;2.35;1.67;;;;;;;;;;5013997;28;20041;-80
2021/08/26 01:32:58;;;;;;;2.22;1.63;;;;;;;;;;4979971;28;20056;-80
2021/08/26 01:35:24;;;;;;;2.60;1.60;;;;;;;;;;5014077;28;20045;-80
2021/08/26 01:37:51;;;;;;;2.55;1.38;;;;;;;;;;4995084;28;20046;-80
2021/08/26 01:40:16;;;;;;;2.88;1.77;;;;;;;;;;5004990;28;20066;-80
2021/08/26 01:42:42;;;;;;;2.33;1.40;;;;;;;;;;4977890;28;20392;-81
2021/08/26 01:45:10;;;;;;;2.70;1.92;;;;;;;;;;4994689;28;20030;-80
2021/08/26 01:47:36;;;;;;;3.47;2.03;;;;;;;;;;5012784;28;20025;-81
2021/08/26 01:50:02;;;;;;;2.80;1.80;;;;;;;;;;4997232;28;20502;-81
2021/08/26 01:52:28;;;;;;;3.60;1.83;;;;;;;;;;4984781;28;20121;-80
2021/08/26 01:54:55;;;;;;;3.25;1.88;;;;;;;;;;5013543;28;20122;-81
2021/08/26 01:57:24;;;;;;;2.88;1.98;;;;;;;;;;5012585;28;20088;-81
2021/08/26 01:59:49;;;;;;;3.95;2.10;;;;;;;;;;5013204;28;20619;-81
2021/08/26 02:02:15;;;;;;;3.40;1.83;;;;;;;;;;5013094;28;20125;-81
2021/08/26 02:04:40;;;;;;;3.83;2.35;;;;;;;;;;4996497;28;20092;-81
2021/08/26 02:07:06;;;;;;;2.95;2.13;;;;;;;;;;4996379;28;20127;-80
2021/08/26 02:09:33;;;;;;;2.60;1.90;;;;;;;;;;5025689;28;20481;-80
2021/08/26 02:11:59;;;;;;;3.53;2.13;;;;;;;;;;5015324;28;20045;-80
2021/08/26 02:14:24;;;;;;;2.95;2.00;;;;;;;;;;5012658;28;20030;-80
2021/08/26 02:16:50;;;;;;;5.50;2.90;;;;;;;;;;4996475;28;20036;-80
2021/08/26 02:19:15;;;;;;;4.00;2.28;;;;;;;;;;5012634;28;20095;-81
2021/08/26 02:21:41;;;;;;;3.08;2.40;;;;;;;;;;5029202;28;20112;-81
2021/08/26 02:24:06;;;;;;;4.30;2.47;;;;;;;;;;5012797;28;20065;-81
2021/08/26 02:26:32;;;;;;;3.20;2.42;;;;;;;;;;5010743;28;20042;-81
2021/08/26 02:28:57;;;;;;;4.70;2.60;;;;;;;;;;5012690;28;20033;-81
2021/08/26 02:31:23;;;;;;;3.53;2.08;;;;;;;;;;5029149;28;20033;-80
2021/08/26 02:33:48;;;;;;;3.42;2.25;;;;;;;;;;4992537;28;20598;-80
2021/08/26 02:36:14;;;;;;;3.08;2.40;;;;;;;;;;4992946;28;20038;-81
2021/08/26 02:38:39;;;;;;;3.55;2.40;;;;;;;;;;4993227;28;20034;-80
2021/08/26 02:41:05;;;;;;;3.33;2.15;;;;;;;;;;4990376;28;20121;-80
2021/08/26 02:43:30;;;;;;;3.65;2.42;;;;;;;;;;4980680;28;20053;-81
2021/08/26 02:45:57;;;;;;;3.05;2.25;;;;;;;;;;4995662;28;20061;-80
2021/08/26 02:48:22;;;;;;;3.58;2.60;;;;;;;;;;5012088;28;20118;-82
2021/08/26 02:50:48;;;;;;;3.78;2.60;;;;;;;;;;4996197;28;20029;-81
2021/08/26 02:53:13;;;;;;;3.67;2.47;;;;;;;;;;5028485;28;20042;-80
2021/08/26 02:55:39;;;;;;;2.67;2.20;;;;;;;;;;5028219;28;20108;-81
2021/08/26 02:58:04;;;;;;;3.03;2.40;;;;;;;;;;4995481;28;20079;-80
2021/08/26 03:00:30;;;;;;;2.72;1.92;;;;;;;;;;4995847;28;20113;-80
2021/08/26 03:02:55;;;;;;;3.63;2.40;;;;;;;;;;5011627;28;20488;-80
2021/08/26 03:05:21;;;;;;;4.75;2.60;;;;;;;;;;5008499;28;20061;-81
2021/08/26 03:07:46;;;;;;;4.97;2.50;;;;;;;;;;4992310;28;20057;-81
2021/08/26 03:10:11;;;;;;;4.22;2.80;;;;;;;;;;4969255;28;20037;-80
2021/08/26 03:12:37;;;;;;;5.20;2.53;;;;;;;;;;5012237;28;20033;-81
2021/08/26 03:15:03;;;;;;;4.30;2.60;;;;;;;;;;5028360;28;20109;-80
2021/08/26 03:17:28;;;;;;;3.30;2.20;;;;;;;;;;4977903;28;20029;-80
2021/08/26 03:19:54;;;;;;;3.45;2.20;;;;;;;;;;5011701;28;20108;-80
2021/08/26 03:22:19;;;;;;;2.72;2.28;;;;;;;;;;5011767;28;20037;-80
2021/08/26 03:24:45;;;;;;;5.03;2.50;;;;;;;;;;5028417;28;20049;-81
2021/08/26 03:27:10;;;;;;;2.88;2.22;;;;;;;;;;5010911;28;20042;-80
2021/08/26 03:29:37;;;;;;;3.83;2.35;;;;;;;;;;5024633;28;20057;-81
2021/08/26 03:32:02;;;;;;;3.25;2.20;;;;;;;;;;5000187;28;20037;-81
2021/08/26 03:34:28;;;;;;;2.90;2.10;;;;;;;;;;4994518;28;20029;-81
2021/08/26 03:36:53;;;;;;;3.85;2.25;;;;;;;;;;4995196;28;20041;-80
2021/08/26 03:39:19;;;;;;;2.90;2.15;;;;;;;;;;5011504;28;20034;-80
2021/08/26 03:41:44;;;;;;;4.07;2.47;;;;;;;;;;4994845;28;20117;-81
2021/08/26 03:44:10;;;;;;;3.65;2.38;;;;;;;;;;5008066;28;20030;-81
2021/08/26 03:46:35;;;;;;;3.17;2.20;;;;;;;;;;4996375;28;20033;-81
2021/08/26 03:49:01;;;;;;;3.92;2.00;;;;;;;;;;5024121;28;20034;-80
2021/08/26 03:51:26;;;;;;;3.42;2.30;;;;;;;;;;4975645;28;20040;-81
2021/08/26 03:53:52;;;;;;;3.45;1.90;;;;;;;;;;4991569;28;20042;-81
2021/08/26 03:56:17;;;;;;;3.58;2.40;;;;;;;;;;4991025;28;20033;-81
2021/08/26 03:58:43;;;;;;;3.20;2.30;;;;;;;;;;5008397;28;20026;-81
2021/08/26 04:01:08;;;;;;;3.20;1.98;;;;;;;;;;4994061;28;20052;-81
2021/08/26 04:03:34;;;;;;;3.75;2.28;;;;;;;;;;4994287;28;20431;-81
2021/08/26 04:05:59;;;;;;;3.17;1.95;;;;;;;;;;5001246;28;20026;-80
2021/08/26 04:08:25;;;;;;;2.88;1.95;;;;;;;;;;4991356;28;20381;-81
2021/08/26 04:10:50;;;;;;;3.88;2.38;;;;;;;;;;4989468;28;20022;-80
2021/08/26 04:13:16;;;;;;;2.97;2.10;;;;;;;;;;5011176;28;20105;-81
2021/08/26 04:15:41;;;;;;;3.78;1.98;;;;;;;;;;4994190;28;20107;-81
2021/08/26 04:18:07;;;;;;;2.70;2.00;;;;;;;;;;5010442;28;20033;-81
2021/08/26 04:20:32;;;;;;;2.83;1.90;;;;;;;;;;5010922;28;20029;-81
2021/08/26 04:22:59;;;;;;;3.05;2.30;;;;;;;;;;5010517;28;20057;-80
2021/08/26 04:25:24;;;;;;;3.50;2.08;;;;;;;;;;4978352;28;20034;-81
2021/08/26 04:27:50;;;;;;;2.60;1.73;;;;;;;;;;5009370;28;20037;-81
2021/08/26 04:30:15;;;;;;;2.83;1.70;;;;;;;;;;4974841;28;20034;-81
2021/08/26 04:32:41;;;;;;;2.83;1.58;;;;;;;;;;4975039;28;20120;-81
2021/08/26 04:35:07;;;;;;;2.85;1.73;;;;;;;;;;4991018;28;20073;-81
2021/08/26 04:37:32;;;;;;;3.33;1.85;;;;;;;;;;4958984;28;20045;-81
2021/08/26 04:39:58;;;;;;;2.60;1.90;;;;;;;;;;4998979;28;20400;-81
2021/08/26 04:42:23;;;;;;;2.97;1.85;;;;;;;;;;4977973;28;20038;-81
2021/08/26 04:44:49;;;;;;;2.50;1.50;;;;;;;;;;5010192;28;20491;-81
2021/08/26 04:47:14;;;;;;;3.42;1.80;;;;;;;;;;4993388;28;20052;-81
2021/08/26 04:49:40;;;;;;;2.88;1.40;;;;;;;;;;5006905;28;20026;-81
2021/08/26 04:52:05;;;;;;;2.67;1.60;;;;;;;;;;4974620;28;20396;-81
2021/08/26 04:54:31;;;;;;;2.83;1.40;;;;;;;;;;4958994;28;20029;-81
2021/08/26 04:56:56;;;;;;;2.65;1.48;;;;;;;;;;4982102;28;20034;-81
2021/08/26 04:59:21;;;;;;;2.88;1.52;;;;;;;;;;4993788;28;20046;-81
2021/08/26 05:01:47;;;;;;;2.50;1.60;;;;;;;;;;5010168;28;20050;-81
2021/08/26 05:04:12;;;;;;;3.53;1.50;;;;;;;;;;4976421;28;20053;-82
2021/08/26 05:06:38;;;;;;;2.50;1.30;;;;;;;;;;4990363;28;20034;-81
2021/08/26 05:09:04;;;;;;;2.53;1.60;;;;;;;;;;4993849;28;20096;-81
2021/08/26 05:11:29;;;;;;;3.53;1.88;;;;;;;;;;5006664;28;20045;-82
2021/08/26 05:13:55;;;;;;;2.53;1.30;;;;;;;;;;4994635;28;20038;-81
2021/08/26 05:16:20;;;;;;;2.67;1.60;;;;;;;;;;5022207;28;20038;-81
2021/08/26 05:18:45;;;;;;;3.00;1.60;;;;;;;;;;5026602;28;20440;-81
2021/08/26 05:21:11;;;;;;;2.65;1.50;;;;;;;;;;4994103;28;20107;-80
2021/08/26 05:23:37;;;;;;;2.80;1.50;;;;;;;;;;5010355;28;20030;-81
2021/08/26 05:26:02;;;;;;;2.67;1.58;;;;;;;;;;4977293;28;20038;-81
2021/08/26 05:28:28;;;;;;;3.35;1.48;;;;;;;;;;5010265;28;20446;-81
2021/08/26 05:30:53;;;;;;;2.55;1.70;;;;;;;;;;4993542;28;20034;-81
2021/08/26 05:33:19;;;;;;;3.22;1.70;;;;;;;;;;5009739;28;20041;-81
2021/08/26 05:35:45;;;;;;;2.85;1.38;;;;;;;;;;5025831;28;20030;-81
2021/08/26 05:38:10;;;;;;;3.22;1.45;;;;;;;;;;5010313;28;20026;-81
2021/08/26 05:40:35;;;;;;;3.55;1.52;;;;;;;;;;5011516;28;20104;-81
2021/08/26 05:43:01;;;;;;;2.88;1.35;;;;;;;;;;5013141;28;20101;-81
2021/08/26 05:45:29;;;;;;;3.65;1.48;;;;;;;;;;4977992;28;20026;-81
2021/08/26 05:47:55;;;;;;;2.72;1.77;;;;;;;;;;5005680;28;20377;-80
2021/08/26 05:50:24;;;;;;;2.97;1.27;;;;;;;;;;5013890;28;20030;-81
2021/08/26 05:52:50;;;;;;;2.40;1.35;;;;;;;;;;5013517;28;20030;-81
2021/08/26 05:55:16;;;;;;;2.35;1.10;;;;;;;;;;4996964;28;20396;-81
2021/08/26 05:57:42;;;;;;;3.40;1.42;;;;;;;;;;5028586;28;20046;-81
2021/08/26 06:00:08;;;;;;;2.72;1.23;;;;;;;;;;5013190;28;20038;-82
2021/08/26 06:02:33;;;;;;;2.17;1.30;;;;;;;;;;4997023;28;20075;-80
2021/08/26 06:04:59;;;;;;;3.13;1.50;;;;;;;;;;5005177;28;20504;-81
2021/08/26 06:07:25;;;;;;;3.38;1.08;;;;;;;;;;5013293;28;20033;-80
2021/08/26 06:09:50;;;;;;;3.45;1.40;;;;;;;;;;4963957;28;20065;-81
2021/08/26 06:12:15;;;;;;;3.58;1.45;;;;;;;;;;5026181;28;20113;-81
2021/08/26 06:14:41;;;;;;;2.65;1.60;;;;;;;;;;4982639;28;20022;-81
2021/08/26 06:17:07;;;;;;;3.55;1.42;;;;;;;;;;5009608;28;20087;-80
2021/08/26 06:19:32;;;;;;;3.55;1.40;;;;;;;;;;5010741;28;20022;-81
2021/08/26 06:21:58;;;;;;;3.22;1.23;;;;;;;;;;4994597;28;20107;-83
2021/08/26 06:24:23;;;;;;;3.35;1.60;;;;;;;;;;5011388;28;20030;-81
2021/08/26 06:26:49;;;;;;;4.95;1.52;;;;;;;;;;5012274;28;20072;-81
2021/08/26 06:29:14;;;;;;;3.33;1.60;;;;;;;;;;4996265;28;20031;-81
2021/08/26 06:31:40;;;;;;;4.30;1.60;;;;;;;;;;5025176;28;20034;-82
2021/08/26 06:34:05;;;;;;;5.43;1.77;;;;;;;;;;4982559;28;20022;-82
2021/08/26 06:36:31;;;;;;;6.13;1.73;;;;;;;;;;4979737;28;20036;-82
2021/08/26 06:38:58;;;;;;;5.07;2.05;;;;;;;;;;5029223;28;20143;-82
2021/08/26 06:41:25;;;;;;;9.15;1.90;;;;;;;;;;4978494;28;20110;-82
2021/08/26 06:43:50;;;;;;;8.75;2.72;;;;;;;;;;5011931;28;20030;-83
2021/08/26 06:46:16;;;;;;;7.90;2.50;;;;;;;;;;4994039;28;20033;-82
2021/08/26 06:48:41;;;;;;;8.00;2.65;;;;;;;;;;4992488;28;20495;-83
2021/08/26 06:51:07;;;;;;;8.05;2.58;;;;;;;;;;4994692;28;20554;-82
2021/08/26 06:53:32;;;;;;;9.30;2.97;;;;;;;;;;5028366;28;20077;-83
2021/08/26 06:55:58;;;;;;;6.22;3.28;;;;;;;;;;4993769;28;20030;-83
2021/08/26 06:58:23;;;;;;;6.65;3.00;;;;;;;;;;4979229;28;20079;-82
2021/08/26 07:00:49;;;;;;;6.43;3.33;;;;;;;;;;4995946;28;20124;-82
2021/08/26 07:03:14;;;;;;;14.70;3.85;;;;;;;;;;4994656;28;20080;-82
2021/08/26 07:05:39;;;;;;;5.97;2.67;;;;;;;;;;5024105;28;20038;-82
2021/08/26 07:08:05;;;;;;;8.02;3.20;;;;;;;;;;5027967;28;20056;-82
2021/08/26 07:10:31;;;;;;;9.85;3.45;;;;;;;;;;5011228;28;20104;-83
2021/08/26 07:12:56;;;;;;;8.23;3.38;;;;;;;;;;4994858;28;20029;-83
2021/08/26 07:15:24;;;;;;;7.55;2.50;;;;;;;;;;5016373;28;20052;-82
2021/08/26 07:17:50;;;;;;;8.00;2.53;;;;;;;;;;5023805;28;20034;-82
2021/08/26 07:20:16;;;;;;;8.50;2.70;;;;;;;;;;4991866;28;20025;-82
2021/08/26 07:22:41;;;;;;;10.13;2.97;;;;;;;;;;5016001;28;20040;-82
2021/08/26 07:25:07;;;;;;;8.95;2.40;;;;;;;;;;5005307;28;20034;-82
2021/08/26 07:27:32;;;;;;;6.45;2.25;;;;;;;;;;5004479;28;20034;-82
2021/08/26 07:29:58;;;;;;;7.95;2.70;;;;;;;;;;4987919;28;20041;-81
2021/08/26 07:32:23;;;;;;;6.82;3.03;;;;;;;;;;5009013;28;20030;-82
2021/08/26 07:34:49;;;;;;;5.85;3.22;;;;;;;;;;4999860;28;20057;-81
2021/08/26 07:37:15;;;;;;;8.18;2.47;;;;;;;;;;4984260;28;20042;-82
2021/08/26 07:39:40;;;;;;;7.47;3.00;;;;;;;;;;4986837;28;20091;-82
2021/08/26 07:42:06;;;;;;;7.15;2.17;;;;;;;;;;4986394;28;20373;-81
2021/08/26 07:44:31;;;;;;;7.10;2.60;;;;;;;;;;5018786;28;20022;-82
2021/08/26 07:46:56;;;;;;;9.43;2.58;;;;;;;;;;4985384;28;20042;-82
2021/08/26 07:49:22;;;;;;;8.80;3.10;;;;;;;;;;5020246;28;20037;-82
2021/08/26 07:51:47;;;;;;;7.05;2.25;;;;;;;;;;5005471;28;20168;-82
2021/08/26 07:54:13;;;;;;;7.60;2.35;;;;;;;;;;5007417;28;20029;-82
2021/08/26 07:56:38;;;;;;;11.38;2.78;;;;;;;;;;5007519;28;20026;-82
2021/08/26 07:59:04;;;;;;;6.75;2.08;;;;;;;;;;5027119;28;20512;-82
2021/08/26 08:01:30;;;;;;;5.05;1.90;;;;;;;;;;5011084;28;20488;-82
2021/08/26 08:03:55;;;;;;;7.50;2.03;;;;;;;;;;4994538;28;20029;-82
2021/08/26 08:06:22;;;;;;;9.15;2.95;;;;;;;;;;4977556;28;20105;-82
2021/08/26 08:08:47;;;;;;;6.28;1.83;;;;;;;;;;4984646;28;20030;-83
2021/08/26 08:11:13;;;;;;;7.07;2.55;;;;;;;;;;4996178;28;20084;-82
2021/08/26 08:13:38;;;;;;;9.65;2.97;;;;;;;;;;5007357;28;20087;-82
2021/08/26 08:16:04;;;;;;;7.95;3.58;;;;;;;;;;4991124;28;20038;-82
2021/08/26 08:18:30;;;;;;;8.63;2.90;;;;;;;;;;5006896;28;20112;-82
2021/08/26 08:20:55;;;;;;;9.15;3.90;;;;;;;;;;5007335;28;20034;-82
2021/08/26 08:23:21;;;;;;;7.32;3.03;;;;;;;;;;4958336;28;20027;-82
2021/08/26 08:25:47;;;;;;;11.60;3.13;;;;;;;;;;4977931;28;20036;-81
2021/08/26 08:28:16;;;;;;;11.35;2.80;;;;;;;;;;4990076;28;20053;-81
2021/08/26 08:30:43;;;;;;;9.57;2.40;;;;;;;;;;4990791;28;20034;-81
2021/08/26 08:33:09;;;;;;;9.85;2.38;;;;;;;;;;4991189;28;20110;-82
2021/08/26 08:35:34;;;;;;;10.77;2.50;;;;;;;;;;4993359;28;20443;-82
2021/08/26 08:38:00;;;;;;;7.65;2.30;;;;;;;;;;4993784;28;20034;-82
2021/08/26 08:40:26;;;;;;;6.05;2.00;;;;;;;;;;4994178;28;20519;-82
2021/08/26 08:42:52;;;;;;;5.90;2.22;;;;;;;;;;5010341;28;20092;-82
2021/08/26 08:45:18;;;;;;;7.00;2.40;;;;;;;;;;4993632;28;20100;-81
2021/08/26 08:47:43;;;;;;;6.57;1.88;;;;;;;;;;5008645;28;20503;-83
2021/08/26 08:50:09;;;;;;;5.95;1.77;;;;;;;;;;4991392;28;20251;-82
2021/08/26 08:52:38;;;;;;;5.65;2.13;;;;;;;;;;5004697;28;20489;-82
2021/08/26 08:55:08;;;;;;;6.47;1.88;;;;;;;;;;4968843;28;20026;-82
2021/08/26 08:57:36;;;;;;;5.80;2.35;;;;;;;;;;4989849;28;20080;-85
2021/08/26 09:00:15;;;;;;;7.45;2.17;;;;;;;;;;4959094;28;20026;-85
2021/08/26 09:02:41;;;;;;;6.88;2.10;;;;;;;;;;4975339;28;20500;-87
2021/08/26 09:05:07;;;;;;;8.45;2.05;;;;;;;;;;4994722;28;20026;-87
2021/08/26 09:07:33;;;;;;;6.47;1.70;;;;;;;;;;5006642;28;20029;-88
2021/08/26 09:09:59;;;;;;;9.85;1.92;;;;;;;;;;4971808;28;20087;-85
2021/08/26 09:12:39;;;;;;;21.85;2.08;;;;;;;;;;5022865;28;20040;-82
2021/08/26 09:15:12;;;;;;;9.55;2.17;;;;;;;;;;5013127;28;20038;-85
2021/08/26 09:17:38;;;;;;;8.75;2.22;;;;;;;;;;5014832;28;20033;-86
2021/08/26 09:20:09;;;;;;;12.13;3.40;;;;;;;;;;4978665;28;20026;-89
2021/08/26 09:22:36;;;;;;;14.17;3.47;;;;;;;;;;4979159;28;20085;-85
2021/08/26 09:25:02;;;;;;;4.72;1.70;;;;;;;;;;4991107;28;20041;-87
2021/08/26 09:27:31;;;;;;;6.07;1.63;;;;;;;;;;4961646;28;20401;-85
2021/08/26 09:30:00;;;;;;;8.68;1.92;;;;;;;;;;4998390;28;20045;-88
2021/08/26 09:32:43;;;;;;;7.85;2.67;;;;;;;;;;5010815;28;20485;-89
2021/08/26 09:35:20;;;;;;;10.15;2.03;;;;;;;;;;4994979;28;20030;-89
2021/08/26 09:37:54;;;;;;;5.55;1.80;;;;;;;;;;4995612;28;20495;-89
2021/08/26 09:40:46;;;;;;;8.43;1.88;;;;;;;;;;5010761;28;20034;-89
2021/08/26 09:43:16;;;;;;;5.28;1.75;;;;;;;;;;4974263;28;20042;-92
2021/08/26 09:45:48;;;;;;;5.60;2.22;;;;;;;;;;4979686;28;20404;-91
2021/08/26 09:48:19;;;;;;;6.57;2.38;;;;;;;;;;5005171;28;20071;-93
2021/08/26 09:50:47;;;;;;;6.78;1.80;;;;;;;;;;4998793;28;20030;-91
2021/08/26 09:53:32;;;;;;;10.45;2.15;;;;;;;;;;5014931;28;20037;-88
2021/08/26 09:56:02;;;;;;;8.05;1.95;;;;;;;;;;5030892;28;20084;-92
2021/08/26 09:58:32;;;;;;;7.05;2.20;;;;;;;;;;5014730;28;20504;-88
2021/08/26 10:01:18;;;;;;;5.47;2.17;;;;;;;;;;5030868;28;20026;-91
2021/08/26 10:03:44;;;;;;;5.95;2.10;;;;;;;;;;5030760;28;20037;-92
2021/08/26 10:06:14;;;;;;;6.90;2.63;;;;;;;;;;4989677;28;20395;-93
2021/08/26 10:08:49;;;;;;;6.85;3.22;;;;;;;;;;4998369;28;20260;-93
2021/08/26 10:11:32;;;;;;;6.55;2.50;;;;;;;;;;4998468;28;20026;-93
2021/08/26 10:14:04;;;;;;;9.10;2.92;;;;;;;;;;5014651;28;20076;-88
2021/08/26 10:16:30;;;;;;;7.38;2.30;;;;;;;;;;5013376;28;20543;-84
2021/08/26 10:18:55;;;;;;;7.70;2.22;;;;;;;;;;5012290;28;20045;-85
2021/08/26 10:21:21;;;;;;;5.95;2.25;;;;;;;;;;5026700;28;20444;-89
2021/08/26 10:23:46;;;;;;;7.32;2.65;;;;;;;;;;4965575;28;20392;-83
2021/08/26 10:26:14;;;;;;;9.60;3.00;;;;;;;;;;5008344;28;20034;-81
2021/08/26 10:28:40;;;;;;;7.03;2.58;;;;;;;;;;5009249;28;20121;-81
2021/08/26 10:31:34;;;;;;;7.40;1.77;;;;;;;;;;4994439;28;20026;-83
2021/08/26 10:34:31;;;;;;;8.07;1.90;;;;;;;;;;4995832;28;20038;-79
2021/08/26 10:36:56;;;;;;;3.70;1.65;;;;;;;;;;5020436;28;20038;-82
2021/08/26 10:39:36;;;;;;;4.85;1.65;;;;;;;;;;5011403;28;20225;-83
2021/08/26 10:42:29;;;;;;;6.40;1.80;;;;;;;;;;4995351;28;20076;-84
2021/08/26 10:45:09;;;;;;;5.55;2.10;;;;;;;;;;5022378;28;20050;-83
2021/08/26 10:47:50;;;;;;;4.85;1.63;;;;;;;;;;4995338;28;20029;-84
2021/08/26 10:50:17;;;;;;;6.22;2.42;;;;;;;;;;5013555;28;20396;-85
2021/08/26 10:53:17;;;;;;;6.93;1.85;;;;;;;;;;5012233;28;20033;-82
2021/08/26 10:55:45;;;;;;;5.25;2.53;;;;;;;;;;4998968;28;20034;-84
2021/08/26 10:58:26;;;;;;;4.10;1.40;;;;;;;;;;5003374;28;20029;-81
2021/08/26 11:00:59;;;;;;;6.45;1.40;;;;;;;;;;5027342;28;20046;-83
2021/08/26 11:03:46;;;;;;;3.78;1.50;;;;;;;;;;4993522;28;20060;-84
2021/08/26 11:06:24;;;;;;;5.90;1.95;;;;;;;;;;5027315;28;20479;-90
2021/08/26 11:08:53;;;;;;;7.25;1.50;;;;;;;;;;5011622;28;20067;-82
2021/08/26 11:11:28;;;;;;;7.32;1.90;;;;;;;;;;4994561;28;20025;-81
2021/08/26 11:14:03;;;;;;;9.43;1.77;;;;;;;;;;5027351;28;20034;-81
2021/08/26 11:16:29;;;;;;;4.35;1.55;;;;;;;;;;5013038;28;20560;-80
2021/08/26 11:18:58;;;;;;;6.07;1.50;;;;;;;;;;5011059;28;20125;-80
2021/08/26 11:21:42;;;;;;;8.43;1.98;;;;;;;;;;5011867;28;20030;-80
2021/08/26 11:24:31;;;;;;;4.78;1.33;;;;;;;;;;5007096;28;20078;-80
2021/08/26 11:27:19;;;;;;;5.50;1.60;;;;;;;;;;5011134;28;20026;-80
2021/08/26 11:29:44;;;;;;;8.63;2.25;;;;;;;;;;5019488;28;20046;-79
2021/08/26 11:32:11;;;;;;;5.97;1.70;;;;;;;;;;5016647;28;20041;-80
2021/08/26 11:34:42;;;;;;;3.95;1.50;;;;;;;;;;4979207;28;20491;-80
2021/08/26 11:37:17;;;;;;;7.40;2.20;;;;;;;;;;4963264;28;20054;-80
2021/08/26 11:39:57;;;;;;;8.32;1.75;;;;;;;;;;5011400;28;20080;-80
2021/08/26 11:42:24;;;;;;;9.70;1.55;;;;;;;;;;5010763;28;20030;-79
2021/08/26 11:45:18;;;;;;;7.63;1.67;;;;;;;;;;5018651;28;20034;-80
2021/08/26 11:47:47;;;;;;;8.95;1.83;;;;;;;;;;5009601;28;20034;-80
2021/08/26 11:50:30;;;;;;;6.00;1.80;;;;;;;;;;5010736;28;20037;-79
2021/08/26 11:53:00;;;;;;;6.47;1.92;;;;;;;;;;4979749;28;20049;-79
2021/08/26 11:55:28;;;;;;;7.82;1.80;;;;;;;;;;4995264;28;20033;-80
2021/08/26 11:57:57;;;;;;;7.55;2.38;;;;;;;;;;4978333;28;20500;-80
2021/08/26 12:00:23;;;;;;;6.82;1.40;;;;;;;;;;4978137;28;20160;-80
2021/08/26 12:02:52;;;;;;;4.72;1.45;;;;;;;;;;5007435;28;20197;-80
2021/08/26 12:05:18;;;;;;;7.20;1.70;;;;;;;;;;4979105;28;20092;-80
2021/08/26 12:07:46;;;;;;;7.05;1.77;;;;;;;;;;4996051;28;20038;-79
2021/08/26 12:10:13;;;;;;;5.70;1.60;;;;;;;;;;4985580;28;20563;-80
2021/08/26 12:13:08;;;;;;;6.13;1.60;;;;;;;;;;4992566;28;20081;-79
2021/08/26 12:15:36;;;;;;;5.90;1.77;;;;;;;;;;4980085;28;20125;-80
2021/08/26 12:18:05;;;;;;;5.82;1.65;;;;;;;;;;4994356;28;20554;-79
2021/08/26 12:20:35;;;;;;;5.97;1.20;;;;;;;;;;5027538;28;20040;-80
2021/08/26 12:23:01;;;;;;;6.00;1.88;;;;;;;;;;5010369;28;20057;-79
2021/08/26 12:25:33;;;;;;;3.80;1.20;;;;;;;;;;5025832;28;20069;-79
2021/08/26 12:28:00;;;;;;;4.35;1.35;;;;;;;;;;4993495;28;20030;-79
2021/08/26 12:30:35;;;;;;;5.32;1.08;;;;;;;;;;5010131;28;20046;-79
2021/08/26 12:33:07;;;;;;;5.47;1.23;;;;;;;;;;5024452;28;20041;-80
2021/08/26 12:35:46;;;;;;;2.97;1.15;;;;;;;;;;4993222;28;20076;-79
2021/08/26 12:38:13;;;;;;;4.22;1.00;;;;;;;;;;4975302;28;20096;-80
2021/08/26 12:40:52;;;;;;;4.30;1.30;;;;;;;;;;4975335;28;20519;-79
2021/08/26 12:43:24;;;;;;;5.05;1.33;;;;;;;;;;5010262;28;20033;-80
2021/08/26 12:45:50;;;;;;;4.38;1.67;;;;;;;;;;4977171;28;20049;-80
2021/08/26 12:48:27;;;;;;;5.55;1.60;;;;;;;;;;5009819;28;20030;-79
2021/08/26 12:51:13;;;;;;;6.25;1.10;;;;;;;;;;5013999;28;20034;-79
2021/08/26 12:54:00;;;;;;;4.05;1.00;;;;;;;;;;4982542;28;20033;-79
2021/08/26 12:56:26;;;;;;;4.13;1.17;;;;;;;;;;4982508;28;20088;-79
2021/08/26 12:59:05;;;;;;;5.43;1.13;;;;;;;;;;5026640;28;20027;-80
2021/08/26 13:01:31;;;;;;;3.50;1.25;;;;;;;;;;4995390;28;20489;-79
2021/08/26 13:03:57;;;;;;;5.40;1.27;;;;;;;;;;4995100;28;20052;-80
2021/08/26 13:06:52;;;;;;;5.32;1.20;;;;;;;;;;4985188;28;20571;-79
2021/08/26 13:09:34;;;;;;;3.80;1.10;;;;;;;;;;4967916;28;20420;-79
2021/08/26 13:12:19;;;;;;;4.63;1.13;;;;;;;;;;4997959;28;20033;-79
2021/08/26 13:14:46;;;;;;;4.38;1.00;;;;;;;;;;4981511;28;20033;-79
2021/08/26 13:17:13;;;;;;;6.65;1.40;;;;;;;;;;5013704;28;20060;-79
2021/08/26 13:19:43;;;;;;;5.28;1.23;;;;;;;;;;5013873;28;20026;-79
2021/08/26 13:22:19;;;;;;;6.78;1.35;;;;;;;;;;5014041;28;20033;-79
2021/08/26 13:24:44;;;;;;;4.72;1.20;;;;;;;;;;5030540;28;20083;-79
2021/08/26 13:27:10;;;;;;;4.15;1.30;;;;;;;;;;5029361;28;20046;-79
2021/08/26 13:29:35;;;;;;;4.32;1.20;;;;;;;;;;5013816;28;20036;-80
2021/08/26 13:32:01;;;;;;;6.03;1.92;;;;;;;;;;4997717;28;20427;-79
2021/08/26 13:34:26;;;;;;;3.40;1.10;;;;;;;;;;5013633;28;20120;-79
2021/08/26 13:36:52;;;;;;;4.35;1.60;;;;;;;;;;5029933;28;20038;-79
2021/08/26 13:39:20;;;;;;;4.10;1.08;;;;;;;;;;5005875;28;20042;-82
2021/08/26 13:41:47;;;;;;;5.03;1.30;;;;;;;;;;5013210;28;20038;-81
2021/08/26 13:44:12;;;;;;;6.10;1.30;;;;;;;;;;5013643;28;20057;-82
2021/08/26 13:46:38;;;;;;;4.97;1.33;;;;;;;;;;5013124;28;20056;-80
2021/08/26 13:49:03;;;;;;;5.45;2.03;;;;;;;;;;5003316;28;20091;-79
2021/08/26 13:51:29;;;;;;;4.25;1.10;;;;;;;;;;5012757;28;20045;-79
2021/08/26 13:53:54;;;;;;;6.50;1.50;;;;;;;;;;4996872;28;20053;-79
2021/08/26 13:56:20;;;;;;;4.53;1.40;;;;;;;;;;5012728;28;20034;-79
2021/08/26 13:58:45;;;;;;;5.20;1.48;;;;;;;;;;5029664;28;20040;-80
2021/08/26 14:01:12;;;;;;;3.17;1.23;;;;;;;;;;5013006;28;20119;-79
2021/08/26 14:03:38;;;;;;;8.55;1.80;;;;;;;;;;5012964;28;20088;-79
2021/08/26 14:06:04;;;;;;;6.18;1.70;;;;;;;;;;5029313;28;20034;-79
2021/08/26 14:08:29;;;;;;;5.38;1.45;;;;;;;;;;5029784;28;20558;-79
2021/08/26 14:10:55;;;;;;;5.55;1.35;;;;;;;;;;5029527;28;20033;-79
2021/08/26 14:13:20;;;;;;;5.55;1.15;;;;;;;;;;4996816;28;20061;-79
2021/08/26 14:15:46;;;;;;;4.80;1.42;;;;;;;;;;5011902;28;20060;-80
2021/08/26 14:18:11;;;;;;;6.25;1.40;;;;;;;;;;5028950;28;20033;-79
2021/08/26 14:20:37;;;;;;;11.30;1.63;;;;;;;;;;5013129;28;20034;-80
2021/08/26 14:23:02;;;;;;;18.23;1.90;;;;;;;;;;5021084;28;20544;-80
2021/08/26 14:25:29;;;;;;;8.75;1.67;;;;;;;;;;5004065;28;20381;-79
2021/08/26 14:27:54;;;;;;;8.07;2.28;;;;;;;;;;4996776;28;20048;-79
2021/08/26 14:30:20;;;;;;;6.35;1.95;;;;;;;;;;4982729;28;20473;-77
2021/08/26 14:32:45;;;;;;;8.95;4.05;;;;;;;;;;5006098;28;20053;-79
2021/08/26 14:35:11;;;;;;;12.90;3.08;;;;;;;;;;5009356;28;20042;-78
2021/08/26 14:37:36;;;;;;;8.82;3.22;;;;;;;;;;5025167;28;20495;-79
2021/08/26 14:40:03;;;;;;;12.68;2.90;;;;;;;;;;5012854;28;20038;-80
2021/08/26 14:42:28;;;;;;;7.28;2.85;;;;;;;;;;4992691;28;20030;-80
2021/08/26 14:44:54;;;;;;;6.50;2.17;;;;;;;;;;4988531;28;20138;-80
2021/08/26 14:47:19;;;;;;;7.32;2.60;;;;;;;;;;4994268;28;20186;-80
2021/08/26 14:49:45;;;;;;;6.45;2.10;;;;;;;;;;5012133;28;20041;-80
2021/08/26 14:52:10;;;;;;;5.07;2.17;;;;;;;;;;5012464;28;20399;-80
2021/08/26 14:54:36;;;;;;;6.80;1.92;;;;;;;;;;5012242;28;20112;-80